This is the latest recevied weather packets stored in our database for station/object KK7RJD. If no packets are shown the sender has not sent any weather packets the latest 1 day(s).
| Time | Temp. | Humidity | Pressure | Rain* | Wind** | Luminosity | Snow |
|---|---|---|---|---|---|---|---|
| 1778026489 | 7.22° C | 45% | 1015.8 hPa | 0 mm | - | 270 W/m² | - |
| 1778025279 | 6.67° C | 42% | 1015.7 hPa | 0 mm | - | 302 W/m² | - |
| 1778024673 | 7.22° C | 43% | 1015.4 hPa | 0 mm | - | 157 W/m² | - |
| 1778024067 | 6.67° C | 43% | 1015.4 hPa | 0 mm | - | 222 W/m² | - |
| 1778022252 | 6.67° C | 39% | 1015.4 hPa | 0 mm | - | 99 W/m² | - |
| 1778021948 | 6.67° C | 38% | 1015.2 hPa | 0 mm | - | 109 W/m² | - |
| 1778020735 | 6.67° C | 42% | 1015.1 hPa | 0 mm | - | 311 W/m² | - |
| 1778020432 | 6.67° C | 45% | 1015.2 hPa | 0 mm | - | 246 W/m² | - |
| 1778019824 | 6.11° C | 47% | 1015.3 hPa | 0 mm | - | 176 W/m² | - |
| 1778019218 | 7.22° C | 45% | 1015.1 hPa | 0 mm | - | 195 W/m² | - |
| 1778018612 | 7.22° C | 42% | 1014.8 hPa | 0 mm | - | 460 W/m² | - |
| 1778018310 | 7.22° C | 43% | 1014.8 hPa | 0 mm | - | 219 W/m² | - |
| 1778017403 | 8.89° C | 35% | 1014.5 hPa | 0 mm | - | 266 W/m² | - |
| 1778016493 | 7.22° C | 40% | 1014.5 hPa | 0 mm | - | 566 W/m² | - |
| 1778014373 | 7.22° C | 40% | 1014.8 hPa | 0 mm | - | 265 W/m² | - |
| 1778013767 | 6.67° C | 43% | 1014.9 hPa | 0 mm | - | 291 W/m² | - |
| 1778013464 | 7.78° C | 42% | 1014.9 hPa | 0 mm | - | 277 W/m² | - |
| 1778013161 | 7.78° C | 42% | 1014.8 hPa | 0 mm | - | 289 W/m² | - |
| 1778012553 | 7.78° C | 42% | 1015 hPa | 0 mm | - | 273 W/m² | - |
| 1778011342 | 7.22° C | 41% | 1015.1 hPa | 0 mm | - | 385 W/m² | - |
| 1778010129 | 7.78° C | 44% | 1015.1 hPa | 0 mm | - | 1155 W/m² | - |
| 1778009825 | 7.78° C | 43% | 1015.1 hPa | 0 mm | - | 1156 W/m² | - |
| 1778008918 | 7.78° C | 44% | 1015.1 hPa | 0 mm | - | 446 W/m² | - |
| 1778008314 | 7.22° C | 46% | 1015.4 hPa | 0 mm | - | 487 W/m² | - |
| 1778007103 | 7.78° C | 45% | 1015.4 hPa | 0 mm | - | 1033 W/m² | - |
* Rain latest hour (hover to see other rain measurements)
** Current wind speed in m/s (hover to see current wind gust speed)